Airfield :
LOGIN :

Register | Disclaimer

   EN    FR    IT 

 










Legend :    VFR   Marginal VFR   IFR   Intensive IFR   Very Intensive IFR
Visi :
Ceiling :
>= 8 km
>= 3000ft
5 to 8 km
1000 to 3000 ft
1500m to 5 km
500 to 1000 ft
800 to 1500m
200 to 500 ft
< 800m
< 200 ft
Symbols :   Thunderstorms  Fog  Heavy snow  Heavy precipitations  Wind > 20 kt
SIGMETs :     Misc.  Thunderstorms  Icing  Turbulence  Mountain Waves  Volcanic Ashes






- Airport Elevation : 72 ft
- IATA code : UDE


EHVK - Volkel Airbase

CURRENT METAR :
  • 061557Z AUTO 21018KT 170V250 4100 BR FEW005 BKN007 OVC008 07/06 Q1005 GRN

EXPIRED METARs :
  • 061555Z AUTO 21018KT 170V250 3900 BR FEW005 BKN006 OVC008 07/06 Q1005 YLO
  • 061542Z AUTO 21019KT 180V250 5000 BR FEW006 BKN007 OVC008 07/06 Q1005 GRN 21015KT 9999 SCT008 OVC010 TEMPO 22016G27KT 2600 RADZ BKN006 OVC007
  • 061530Z AUTO 21018KT 180V250 3500 R24R/P3000N BR FEW006 BKN007 OVC008 07/06 Q1005 YLO 21015KT 9999 SCT008 OVC010 TEMPO 22016G27KT 2600 RADZ BKN006 OVC007
  • 061525Z AUTO 21018KT 180V250 5000 BR FEW006 BKN007 OVC008 07/06 Q1005 GRN 21015KT 9999 SCT008 OVC010 TEMPO 22016G27KT 2600 RADZ BKN006 OVC007
  • 061455Z AUTO 21019KT 170V240 2900 R24R/2800D -SHRA SCT006 BKN007 BKN009 07/06 Q1005 YLO 21015KT 9999 SCT008 OVC010 TEMPO 22016G27KT 2600 RADZ BKN006 OVC007
  • 061429Z AUTO 21018KT 180V240 3800 -RA SCT006 BKN008 OVC009 07/06 Q1005 YLO 21015KT 9999 SCT008 OVC010 TEMPO 22016G26KT 3500 RADZ BKN006 OVC007
  • 061425Z AUTO 21018KT 180V240 3900 DZRA SCT007/// OVC008/// 07/06 Q1005 GRN 21015KT 9999 SCT008 OVC010 TEMPO 22016G26KT 3500 RADZ BKN006 OVC007 RMK TS INFO NOT AVBL
  • 061416Z AUTO 21019KT 170V250 6000 DZ BKN007/// OVC008/// 07/06 Q1006 GRN 21015KT 9999 SCT008 OVC010 TEMPO 22016G26KT 3500 RADZ BKN006 OVC007 RMK TS INFO NOT AVBL
  • 061355Z AUTO 21018G28KT 140V250 9999 BKN007/// OVC008/// 07/06 Q1006 GRN 21015KT 9999 SCT008 OVC010 TEMPO 22016G26KT 3500 RADZ BKN006 OVC007 RMK TS INFO NOT AVBL
  • 061336Z AUTO 21018KT 180V250 8000 BR BKN007/// OVC008/// 07/06 Q1006 GRN 21015KT 9999 SCT008 OVC010 TEMPO 22016G26KT 3500 RADZ BKN006 OVC007 RMK TS INFO NOT AVBL
  • 061325Z AUTO 21017KT 180V260 9999 BKN007/// OVC008/// 07/05 Q1006 GRN 21015KT 9999 SCT008 OVC010 TEMPO 22016G26KT 3500 RADZ BKN006 OVC007 RMK TS INFO NOT AVBL

TAF TAF EHVK
Valid from the 06 at 14:00 until the 07 at 02:00 UTC


061319Z 0614/0702 20015KT 9999 BKN008
TEMPO 0612/0618 21016G26KT 4000 RADZ SCT004 OVC007
BECMG 0620/0622 SCT012 BKN018
TEMPO 0621/0701 22017G32KT 4500 -SHRA SCT010 BKN015 SCT022CB
PROB30
TEMPO 0621/0700 3000 SHRA TSRA BKN012 SCT018CB
BECMG 0623/0701 26012KT SCT015 BKN020



MET'MAP, your aeronautical weather chart ! - Copyright ORBIFLY December 2007 - Disclaimer

ORBIFLY MET'MAP TEAM :

Programming & Development : Alexandra Zaïnal
Concept & original design : Baudouin d'Aumeries
Assistance for programming : Marc-Olivier Méhu
Technical & hardware support : Manuel Goepfert

Contact : metmap@orbifly.com




SOURCES & CREDITS :

   NOAA